Terminal Aerodrome Forecast
Issued by NWS Wilmington, OH

Current Version | Previous Version | Graphics & Text | Print | Product List | Glossary Off
Versions: 1 2 3 4 5 6 7 8 9 10 11 12 13 14 15 16 17 18 19 20 21 22 23

000
FTUS41 KILN 302055 AAA
TAFCVG
TAF AMD
KCVG 302055Z 3021/3124 20008KT P6SM VCTS BKN035CB
      TEMPO 3021/3023 23012G20KT 4SM -SHRA BKN035
     FM310100 20003KT P6SM SCT040 SCT100 BKN250
     FM310800 20003KT 4SM BR FEW040 SCT100 SCT250
     FM311400 24006KT P6SM FEW020 SCT100
     FM311800 24006KT P6SM SCT040=

USA.gov is the U.S. government's official web portal to all federal, state and local government web resources and services.